Lake Charles/Chennault AFB, Louisiana
Current Conditions -  °F | °C
As of 9:55 PM on Thursday 18 Dec 2014 (Local Time) from KCWF Reporting Station
Overcast Overcast  
Wind Chill: 55°   Ceiling: 1200
Heat Index: 55°   Visibility: 10mi
Dew Point: 52°   Wind: 9mph
Humidity: 91%   Direction: 50°NE
Pressure: 30.11"   Gusts: NA
Location:  30.22°N, 93.15°W
Report Text: KCWF 190355Z AUTO 05008KT 10SM OVC012 12/11 A3011 RMK AO2 T01250111
Loading
Personal Weather Stations






























Interactive Weather Map New forecast layout! Learn more

10-Day Weather Forecast

Advertisements
Track Severe Weather on mobile